Main page
METAR-TAF:

METAR-TAF

Airports :

Skiathos International Airport

Skiathos, Greece

latitude: 39-11N, longitude: 023-30E, elevation: 15 m

Current weather observation

The report was made 1 hour and 11 minutes ago, at 11:50 UTC
Wind 9 kt from the North/Northeast
Temperature 29°C
Humidity 55%
Pressure 1017 hPa
Visibility 10 km or more
Few clouds at a height of 2500 ft

METAR: LGSK 221150Z 02009KT 9999 FEW025 29/19 Q1017

Time: 16:01 (13:01 UTC)

Forecast

The report was made 2 hours and 1 minutes ago, at 11:00 UTC
Forecast valid from 22 at 12 UTC to 22 at 21 UTC
Wind 8 kt from the North/Northeast
Visibility 10 km or more
Few clouds at a height of 2000 ft

TAF: LGSK 221100Z 2212/2221 02008KT 9999 FEW020

Weather observations and forecasts of more than 4000 airports (METAR and TAF reports).

The available stations are represented by yellow and red dots on the map.

Hover mouse over dot to see the name of the station.

Then click to see weather observations and forecasts.

To change the map : click on the green buttons with a black cross to zoom in, on the green button with a dash to zoom out, or on the green arrows for adjacent maps.


METAR-TAF: